createdAt,value
2017-04-03T00:00:18.727Z,20.23
2017-04-03T00:00:38.198Z,20.27
2017-04-03T00:00:58.210Z,20.1
2017-04-03T00:01:17.683Z,20.12
2017-04-03T00:01:37.693Z,20.19
2017-04-03T00:01:57.734Z,20.13
2017-04-03T00:02:17.778Z,20.16
2017-04-03T00:02:37.235Z,20.08
2017-04-03T00:02:56.699Z,20.12
2017-04-03T00:03:16.719Z,20.13
2017-04-03T00:03:36.717Z,20.16
2017-04-03T00:03:55.622Z,20.12
2017-04-03T00:04:15.074Z,20.13
2017-04-03T00:04:35.089Z,20.12
2017-04-03T00:04:54.540Z,20.13
2017-04-03T00:05:14.563Z,20.08
2017-04-03T00:05:34.012Z,20.08
2017-04-03T00:05:54.013Z,20.16
2017-04-03T00:06:14.052Z,20.12
2017-04-03T00:06:34.070Z,20.13
2017-04-03T00:06:54.096Z,20.12
2017-04-03T00:07:13.549Z,20.23
2017-04-03T00:07:33.611Z,20.16
2017-04-03T00:07:53.642Z,20.26
2017-04-03T00:08:13.098Z,20.05
2017-04-03T00:08:33.146Z,20.09
2017-04-03T00:08:53.151Z,20.09
2017-04-03T00:09:13.160Z,20.18
2017-04-03T00:09:33.200Z,20.12
2017-04-03T00:09:53.220Z,20.12
2017-04-03T00:10:13.245Z,20.1
2017-04-03T00:10:33.252Z,20.09
2017-04-03T00:10:53.290Z,20.01
2017-04-03T00:11:13.289Z,20.08
2017-04-03T00:11:33.275Z,20.18
2017-04-03T00:11:53.347Z,20.13
2017-04-03T00:12:12.806Z,20.09
2017-04-03T00:12:32.848Z,20.08
2017-04-03T00:12:52.860Z,20.06
2017-04-03T00:13:12.900Z,20.09
2017-04-03T00:13:32.927Z,20
2017-04-03T00:13:52.956Z,19.91
2017-04-03T00:14:12.441Z,19.9
2017-04-03T00:14:31.904Z,19.86
2017-04-03T00:14:50.808Z,19.88
2017-04-03T00:15:10.808Z,19.9
2017-04-03T00:15:30.823Z,19.87
2017-04-03T00:15:50.859Z,19.88
2017-04-03T00:16:11.045Z,19.88
2017-04-03T00:16:31.084Z,19.9
2017-04-03T00:16:50.523Z,19.82
2017-04-03T00:17:10.547Z,19.9
2017-04-03T00:17:30.017Z,19.88
2017-04-03T00:17:50.028Z,19.91
2017-04-03T00:18:10.057Z,19.83
2017-04-03T00:18:30.099Z,19.87
2017-04-03T00:18:50.131Z,19.86
2017-04-03T00:19:10.156Z,19.9
2017-04-03T00:19:30.153Z,19.88
2017-04-03T00:19:50.177Z,19.9
2017-04-03T00:20:10.212Z,19.79
2017-04-03T00:20:30.218Z,19.83
2017-04-03T00:20:50.223Z,19.8
2017-04-03T00:21:10.504Z,19.87
2017-04-03T00:21:30.525Z,19.9
2017-04-03T00:21:49.426Z,19.88
2017-04-03T00:22:08.303Z,19.93
2017-04-03T00:22:28.323Z,19.88
2017-04-03T00:22:48.336Z,19.9
2017-04-03T00:23:08.365Z,19.91
2017-04-03T00:23:28.397Z,19.88
2017-04-03T00:23:48.391Z,19.86
2017-04-03T00:24:07.857Z,19.87
2017-04-03T00:24:27.885Z,19.86
2017-04-03T00:24:47.320Z,19.86
2017-04-03T00:25:06.215Z,19.78
2017-04-03T00:25:26.225Z,19.79
2017-04-03T00:25:46.261Z,19.88
2017-04-03T00:26:06.556Z,19.87
2017-04-03T00:26:26.621Z,19.82
2017-04-03T00:26:46.694Z,19.73
2017-04-03T00:27:05.615Z,19.73
2017-04-03T00:27:25.647Z,19.73
2017-04-03T00:27:45.663Z,19.8
2017-04-03T00:28:05.708Z,19.8
2017-04-03T00:28:25.768Z,19.82
2017-04-03T00:28:45.245Z,19.78
2017-04-03T00:29:05.284Z,19.75
2017-04-03T00:29:25.290Z,19.76
2017-04-03T00:29:44.741Z,19.78
2017-04-03T00:30:04.775Z,19.73
2017-04-03T00:30:24.799Z,19.73
2017-04-03T00:30:44.808Z,19.76
2017-04-03T00:31:04.822Z,19.72
2017-04-03T00:31:24.849Z,19.86
2017-04-03T00:31:44.303Z,19.71
2017-04-03T00:32:03.754Z,19.68
2017-04-03T00:32:23.778Z,19.61
2017-04-03T00:32:43.820Z,19.58
2017-04-03T00:33:03.829Z,19.61
2017-04-03T00:33:22.722Z,19.61
2017-04-03T00:33:42.783Z,19.6
2017-04-03T00:34:02.815Z,19.58
2017-04-03T00:34:22.848Z,19.65
2017-04-03T00:34:42.327Z,19.64
2017-04-03T00:35:02.361Z,19.57
2017-04-03T00:35:22.372Z,19.64
2017-04-03T00:35:42.364Z,19.63
2017-04-03T00:36:02.386Z,19.6
2017-04-03T00:36:22.406Z,19.68
2017-04-03T00:36:41.301Z,19.68
2017-04-03T00:37:00.772Z,19.64
2017-04-03T00:37:20.809Z,19.61
2017-04-03T00:37:40.786Z,19.61
2017-04-03T00:38:00.778Z,19.75
2017-04-03T00:38:20.819Z,19.68
2017-04-03T00:38:39.703Z,19.65
2017-04-03T00:38:59.774Z,19.69
2017-04-03T00:39:19.791Z,19.71
2017-04-03T00:39:39.821Z,19.71
2017-04-03T00:39:59.287Z,19.75
2017-04-03T00:40:19.308Z,19.73
2017-04-03T00:40:39.377Z,19.63
2017-04-03T00:40:59.493Z,19.61
2017-04-03T00:41:19.565Z,19.68
2017-04-03T00:41:39.023Z,19.71
2017-04-03T00:41:58.494Z,19.58
2017-04-03T00:42:18.478Z,19.65
2017-04-03T00:42:38.494Z,19.58
2017-04-03T00:42:58.519Z,19.61
2017-04-03T00:43:17.946Z,19.54
2017-04-03T00:43:38.048Z,19.57
2017-04-03T00:43:58.113Z,19.6
2017-04-03T00:44:18.128Z,19.58
2017-04-03T00:44:38.160Z,19.51
2017-04-03T00:44:57.604Z,19.54
2017-04-03T00:45:17.070Z,19.43
2017-04-03T00:45:37.072Z,19.53
2017-04-03T00:45:57.099Z,19.51
2017-04-03T00:46:17.149Z,19.46
2017-04-03T00:46:36.089Z,19.46
2017-04-03T00:46:55.554Z,19.53
2017-04-03T00:47:15.586Z,19.43
2017-04-03T00:47:35.083Z,19.55
2017-04-03T00:47:55.109Z,19.53
2017-04-03T00:48:15.108Z,19.53
2017-04-03T00:48:34.570Z,19.51
2017-04-03T00:48:54.569Z,19.45
2017-04-03T00:49:14.602Z,19.39
2017-04-03T00:49:34.650Z,19.46
2017-04-03T00:49:54.658Z,19.51
2017-04-03T00:50:14.693Z,19.48
2017-04-03T00:50:34.159Z,19.42
2017-04-03T00:50:54.194Z,19.43
2017-04-03T00:51:13.104Z,19.43
2017-04-03T00:51:32.539Z,19.5
2017-04-03T00:51:52.562Z,19.5
2017-04-03T00:52:12.067Z,19.5
2017-04-03T00:52:32.078Z,19.51
2017-04-03T00:52:51.531Z,19.53
2017-04-03T00:53:11.564Z,19.54
2017-04-03T00:53:31.016Z,19.58
2017-04-03T00:53:50.481Z,19.53
2017-04-03T00:54:10.497Z,19.58
2017-04-03T00:54:29.924Z,19.54
2017-04-03T00:54:49.386Z,19.58
2017-04-03T00:55:08.848Z,19.53
2017-04-03T00:55:28.321Z,19.45
2017-04-03T00:55:48.344Z,19.6
2017-04-03T00:56:08.336Z,19.43
2017-04-03T00:56:27.790Z,19.5
2017-04-03T00:56:47.263Z,19.48
2017-04-03T00:57:07.550Z,19.51
2017-04-03T00:57:27.029Z,19.51
2017-04-03T00:57:47.061Z,19.51
2017-04-03T00:58:07.070Z,19.55
2017-04-03T00:58:27.080Z,19.5
2017-04-03T00:58:46.554Z,19.55
2017-04-03T00:59:06.596Z,19.36
2017-04-03T00:59:26.603Z,19.35
2017-04-03T00:59:46.628Z,19.42
2017-04-03T01:00:06.640Z,19.51
2017-04-03T01:00:26.717Z,19.5
2017-04-03T01:00:46.206Z,19.42
2017-04-03T01:01:06.354Z,19.31
2017-04-03T01:01:26.398Z,19.28
2017-04-03T01:01:46.446Z,19.38
2017-04-03T01:02:06.481Z,19.32
2017-04-03T01:02:26.495Z,19.28
2017-04-03T01:02:46.536Z,19.36
2017-04-03T01:03:06.626Z,19.35
2017-04-03T01:03:26.085Z,19.25
2017-04-03T01:03:46.065Z,19.32
2017-04-03T01:04:06.109Z,19.28
2017-04-03T01:04:26.139Z,19.38
2017-04-03T01:04:45.594Z,19.28
2017-04-03T01:05:05.598Z,19.36
2017-04-03T01:05:25.601Z,19.33
2017-04-03T01:05:44.492Z,19.25
2017-04-03T01:06:03.931Z,19.28
2017-04-03T01:06:23.943Z,19.28
2017-04-03T01:06:43.400Z,19.31
2017-04-03T01:07:03.431Z,19.28
2017-04-03T01:07:23.443Z,19.31
2017-04-03T01:07:43.461Z,19.31
2017-04-03T01:08:03.477Z,19.25
2017-04-03T01:08:22.387Z,19.23
2017-04-03T01:08:42.413Z,19.25
2017-04-03T01:09:02.453Z,19.27
2017-04-03T01:09:21.914Z,19.27
2017-04-03T01:09:41.354Z,19.21
2017-04-03T01:10:01.363Z,19.23
2017-04-03T01:10:21.402Z,19.31
2017-04-03T01:10:41.448Z,19.28
2017-04-03T01:11:01.473Z,19.27
2017-04-03T01:11:21.542Z,19.27
2017-04-03T01:11:41.565Z,19.32
2017-04-03T01:12:00.464Z,19.31
2017-04-03T01:12:19.900Z,19.28
2017-04-03T01:12:39.929Z,19.31
2017-04-03T01:12:58.843Z,19.24
2017-04-03T01:13:18.865Z,19.32
2017-04-03T01:13:38.914Z,19.31
2017-04-03T01:13:58.922Z,19.25
2017-04-03T01:14:18.942Z,19.32
2017-04-03T01:14:38.952Z,19.27
2017-04-03T01:14:59.016Z,19.32
2017-04-03T01:15:19.040Z,19.33
2017-04-03T01:15:38.493Z,19.31
2017-04-03T01:15:58.621Z,19.28
2017-04-03T01:16:18.640Z,19.32
2017-04-03T01:16:37.521Z,19.31
2017-04-03T01:16:57.553Z,19.35
2017-04-03T01:17:17.000Z,19.31
2017-04-03T01:17:37.012Z,19.23
2017-04-03T01:17:55.916Z,19.28
2017-04-03T01:18:15.946Z,19.31
2017-04-03T01:18:35.951Z,19.32
2017-04-03T01:18:56.002Z,19.31
2017-04-03T01:19:16.021Z,19.32
2017-04-03T01:19:36.052Z,19.31
2017-04-03T01:19:56.100Z,19.27
2017-04-03T01:20:16.111Z,19.28
2017-04-03T01:20:36.152Z,19.28
2017-04-03T01:20:55.776Z,19.28
2017-04-03T01:21:15.812Z,19.39
2017-04-03T01:21:35.843Z,19.31
2017-04-03T01:21:55.883Z,19.31
2017-04-03T01:22:15.920Z,19.27
2017-04-03T01:22:35.400Z,19.31
2017-04-03T01:22:54.861Z,19.32
2017-04-03T01:23:14.349Z,19.28
2017-04-03T01:23:34.356Z,19.28
2017-04-03T01:23:53.842Z,19.25
2017-04-03T01:24:13.332Z,19.33
2017-04-03T01:24:32.775Z,19.33
2017-04-03T01:24:52.224Z,19.31
2017-04-03T01:25:11.691Z,19.28
2017-04-03T01:25:31.742Z,19.32
2017-04-03T01:25:51.761Z,19.32
2017-04-03T01:26:11.235Z,19.25
2017-04-03T01:26:31.238Z,19.32
2017-04-03T01:26:51.256Z,19.23
2017-04-03T01:27:11.265Z,19.27
2017-04-03T01:27:30.708Z,19.27
2017-04-03T01:27:50.164Z,19.28
2017-04-03T01:28:09.617Z,19.31
2017-04-03T01:28:29.071Z,19.31
2017-04-03T01:28:49.096Z,19.32
2017-04-03T01:29:09.127Z,19.38
2017-04-03T01:29:29.130Z,19.32
2017-04-03T01:29:49.155Z,19.28
2017-04-03T01:30:09.148Z,19.25
2017-04-03T01:30:29.145Z,19.28
2017-04-03T01:30:49.159Z,19.28
2017-04-03T01:31:09.448Z,19.25
2017-04-03T01:31:29.478Z,19.36
2017-04-03T01:31:49.487Z,19.32
2017-04-03T01:32:09.502Z,19.25
2017-04-03T01:32:28.938Z,19.33
2017-04-03T01:32:48.957Z,19.32
2017-04-03T01:33:08.982Z,19.33
2017-04-03T01:33:29.016Z,19.35
2017-04-03T01:33:49.061Z,19.32
2017-04-03T01:34:09.083Z,19.33
2017-04-03T01:34:29.096Z,19.28
2017-04-03T01:34:49.116Z,19.27
2017-04-03T01:35:08.582Z,19.27
2017-04-03T01:35:28.621Z,19.36
2017-04-03T01:35:48.626Z,19.32
2017-04-03T01:36:08.622Z,19.33
2017-04-03T01:36:28.686Z,19.32
2017-04-03T01:36:48.726Z,19.33
2017-04-03T01:37:08.162Z,19.32
2017-04-03T01:37:27.606Z,19.33
2017-04-03T01:37:47.059Z,19.36
2017-04-03T01:38:07.040Z,19.32
2017-04-03T01:38:27.041Z,19.33
2017-04-03T01:38:47.086Z,19.28
2017-04-03T01:39:07.116Z,19.33
2017-04-03T01:39:27.125Z,19.38
2017-04-03T01:39:47.140Z,19.42
2017-04-03T01:40:06.592Z,19.36
2017-04-03T01:40:26.623Z,19.35
2017-04-03T01:40:46.677Z,19.32
2017-04-03T01:41:06.749Z,19.28
2017-04-03T01:41:26.763Z,19.39
2017-04-03T01:41:46.753Z,19.33
2017-04-03T01:42:06.769Z,19.33
2017-04-03T01:42:26.806Z,19.28
2017-04-03T01:42:45.727Z,19.27
2017-04-03T01:43:05.773Z,19.25
2017-04-03T01:43:25.232Z,19.32
2017-04-03T01:43:44.706Z,19.31
2017-04-03T01:44:04.708Z,19.35
2017-04-03T01:44:24.755Z,19.24
2017-04-03T01:44:44.753Z,19.31
2017-04-03T01:45:04.788Z,19.31
2017-04-03T01:45:24.811Z,19.32
2017-04-03T01:45:44.259Z,19.25
2017-04-03T01:46:04.259Z,19.28
2017-04-03T01:46:23.698Z,19.32
2017-04-03T01:46:43.697Z,19.27
2017-04-03T01:47:03.746Z,19.27
2017-04-03T01:47:23.768Z,19.28
2017-04-03T01:47:43.815Z,19.23
2017-04-03T01:48:03.855Z,19.24
2017-04-03T01:48:23.293Z,19.27
2017-04-03T01:48:43.341Z,19.31
2017-04-03T01:49:03.375Z,19.27
2017-04-03T01:49:22.825Z,19.25
2017-04-03T01:49:42.278Z,19.21
2017-04-03T01:50:01.194Z,19.23
2017-04-03T01:50:20.626Z,19.23
2017-04-03T01:50:40.070Z,19.21
2017-04-03T01:51:00.382Z,19.31
2017-04-03T01:51:19.850Z,19.25
2017-04-03T01:51:39.882Z,19.27
2017-04-03T01:51:59.941Z,19.28
2017-04-03T01:52:19.398Z,19.27
2017-04-03T01:52:39.453Z,19.21
2017-04-03T01:52:58.909Z,19.27
2017-04-03T01:53:18.969Z,19.23
2017-04-03T01:53:38.452Z,19.24
2017-04-03T01:53:57.356Z,19.25
2017-04-03T01:54:17.414Z,19.13
2017-04-03T01:54:36.291Z,19.21
2017-04-03T01:54:56.341Z,19.27
2017-04-03T01:55:16.346Z,19.23
2017-04-03T01:55:35.815Z,19.21
2017-04-03T01:55:55.818Z,19.18
2017-04-03T01:56:15.828Z,19.31
2017-04-03T01:56:35.833Z,19.24
2017-04-03T01:56:55.877Z,19.23
2017-04-03T01:57:15.909Z,19.25
2017-04-03T01:57:35.914Z,19.17
2017-04-03T01:57:55.348Z,19.24
2017-04-03T01:58:14.812Z,19.21
2017-04-03T01:58:34.808Z,19.33
2017-04-03T01:58:54.283Z,19.21
2017-04-03T01:59:14.305Z,19.27
2017-04-03T01:59:34.370Z,19.32
2017-04-03T01:59:53.833Z,19.21
2017-04-03T02:00:13.845Z,19.27
2017-04-03T02:00:33.296Z,19.23
2017-04-03T02:00:53.338Z,19.18
2017-04-03T02:01:13.400Z,19.23
2017-04-03T02:01:33.413Z,19.11
2017-04-03T02:01:52.860Z,19.24
2017-04-03T02:02:12.877Z,19.24
2017-04-03T02:02:32.885Z,19.17
2017-04-03T02:02:52.909Z,19.13
2017-04-03T02:03:12.906Z,19.09
2017-04-03T02:03:32.364Z,19.2
2017-04-03T02:03:52.410Z,19.11
2017-04-03T02:04:11.870Z,19.17
2017-04-03T02:04:30.811Z,19.14
2017-04-03T02:04:50.877Z,19.14
2017-04-03T02:05:10.904Z,19.08
2017-04-03T02:05:30.371Z,19.09
2017-04-03T02:05:50.408Z,19.08
2017-04-03T02:06:11.076Z,19.11
2017-04-03T02:06:31.092Z,19.02
2017-04-03T02:06:50.587Z,19.09
2017-04-03T02:07:10.041Z,19.09
2017-04-03T02:07:29.504Z,19.08
2017-04-03T02:07:48.960Z,19.11
2017-04-03T02:08:08.963Z,19.15
2017-04-03T02:08:28.980Z,19.02
2017-04-03T02:08:48.424Z,19.08
2017-04-03T02:09:08.432Z,19.15
2017-04-03T02:09:28.433Z,19.14
2017-04-03T02:09:47.332Z,19.02
2017-04-03T02:10:07.347Z,19.15
2017-04-03T02:10:26.790Z,19.11
2017-04-03T02:10:46.256Z,19.09
2017-04-03T02:11:06.280Z,19.17
2017-04-03T02:11:26.313Z,19.08
2017-04-03T02:11:46.365Z,19.08
2017-04-03T02:12:05.833Z,19.13
2017-04-03T02:12:25.316Z,19.13
2017-04-03T02:12:44.211Z,19.15
2017-04-03T02:13:04.233Z,19.09
2017-04-03T02:13:24.451Z,19.02
2017-04-03T02:13:43.917Z,18.98
2017-04-03T02:14:03.934Z,19.13
2017-04-03T02:14:23.410Z,19.09
2017-04-03T02:14:43.422Z,19.14
2017-04-03T02:15:03.434Z,19.13
2017-04-03T02:15:22.873Z,19.11
2017-04-03T02:15:42.885Z,19.06
2017-04-03T02:16:02.382Z,19.08
2017-04-03T02:16:22.418Z,19.09
2017-04-03T02:16:41.296Z,19.14
2017-04-03T02:17:00.774Z,19.15
2017-04-03T02:17:20.293Z,18.94
2017-04-03T02:17:40.320Z,19.05
2017-04-03T02:18:00.316Z,19.11
2017-04-03T02:18:20.329Z,18.98
2017-04-03T02:18:40.348Z,18.98
2017-04-03T02:19:00.371Z,19.06
2017-04-03T02:19:20.399Z,18.98
2017-04-03T02:19:40.404Z,19.01
2017-04-03T02:20:00.423Z,18.98
2017-04-03T02:20:20.435Z,19.05
2017-04-03T02:20:39.873Z,18.94
2017-04-03T02:20:59.872Z,18.97
2017-04-03T02:21:19.349Z,18.97
2017-04-03T02:21:39.327Z,18.94
2017-04-03T02:21:59.375Z,18.95
2017-04-03T02:22:19.423Z,19.05
2017-04-03T02:22:39.430Z,18.98
2017-04-03T02:22:59.432Z,18.97
2017-04-03T02:23:18.884Z,18.95
2017-04-03T02:23:38.894Z,18.9
2017-04-03T02:23:58.366Z,18.95
2017-04-03T02:24:17.836Z,18.83
2017-04-03T02:24:37.872Z,18.89
2017-04-03T02:24:57.897Z,18.9
2017-04-03T02:25:17.913Z,18.9
2017-04-03T02:25:37.387Z,18.89
2017-04-03T02:25:56.836Z,18.95
2017-04-03T02:26:16.836Z,18.83
2017-04-03T02:26:36.892Z,18.92
2017-04-03T02:26:56.935Z,18.92
2017-04-03T02:27:16.386Z,18.94
2017-04-03T02:27:36.415Z,18.97
2017-04-03T02:27:56.421Z,18.98
2017-04-03T02:28:16.444Z,18.95
2017-04-03T02:28:34.764Z,18.95
2017-04-03T02:28:54.785Z,19.09
2017-04-03T02:29:14.782Z,18.99
2017-04-03T02:29:34.825Z,18.99
2017-04-03T02:29:54.872Z,18.94
2017-04-03T02:30:14.326Z,18.98
2017-04-03T02:30:34.386Z,18.98
2017-04-03T02:30:54.071Z,18.95
2017-04-03T02:31:14.108Z,18.98
2017-04-03T02:31:34.140Z,18.98
2017-04-03T02:31:53.597Z,18.98
2017-04-03T02:32:12.468Z,18.98
2017-04-03T02:32:32.486Z,18.9
2017-04-03T02:32:52.493Z,18.95
2017-04-03T02:33:11.929Z,18.92
2017-04-03T02:33:31.918Z,19.02
2017-04-03T02:33:51.347Z,18.98
2017-04-03T02:34:10.805Z,18.95
2017-04-03T02:34:30.817Z,18.95
2017-04-03T02:34:50.445Z,18.95
2017-04-03T02:35:09.943Z,18.92
2017-04-03T02:35:29.936Z,18.95
2017-04-03T02:35:49.931Z,18.89
2017-04-03T02:36:08.834Z,18.83
2017-04-03T02:36:28.868Z,18.82
2017-04-03T02:36:48.314Z,18.84
2017-04-03T02:37:07.768Z,18.87
2017-04-03T02:37:27.813Z,18.84
2017-04-03T02:37:47.281Z,18.86
2017-04-03T02:38:07.272Z,18.89
2017-04-03T02:38:27.306Z,18.77
2017-04-03T02:38:47.320Z,18.82
2017-04-03T02:39:07.356Z,18.83
2017-04-03T02:39:27.363Z,18.79
2017-04-03T02:39:46.811Z,18.84
2017-04-03T02:40:06.853Z,18.82
2017-04-03T02:40:26.902Z,18.84
2017-04-03T02:40:46.925Z,18.87
2017-04-03T02:41:21.918Z,18.8
2017-04-03T02:41:41.361Z,18.77
2017-04-03T02:42:00.800Z,18.84
2017-04-03T02:42:20.829Z,18.84
2017-04-03T02:42:40.845Z,18.83
2017-04-03T02:43:00.862Z,18.82
2017-04-03T02:43:20.284Z,18.84
2017-04-03T02:43:40.664Z,18.8
2017-04-03T02:44:00.686Z,18.83
2017-04-03T02:44:19.591Z,18.84
2017-04-03T02:44:39.617Z,18.86
2017-04-03T02:44:59.646Z,18.8
2017-04-03T02:45:19.090Z,18.82
2017-04-03T02:45:39.122Z,18.8
2017-04-03T02:45:59.149Z,18.76
2017-04-03T02:46:19.181Z,18.65
2017-04-03T02:46:39.206Z,18.69
2017-04-03T02:46:59.230Z,18.71
2017-04-03T02:47:18.699Z,18.73
2017-04-03T02:47:38.162Z,18.73
2017-04-03T02:47:58.180Z,18.79
2017-04-03T02:48:17.630Z,18.71
2017-04-03T02:48:37.106Z,18.74
2017-04-03T02:48:57.142Z,18.71
2017-04-03T02:49:17.158Z,18.76
2017-04-03T02:49:36.581Z,18.68
2017-04-03T02:49:56.581Z,18.65
2017-04-03T02:50:16.083Z,18.69
2017-04-03T02:50:35.522Z,18.65
2017-04-03T02:50:55.557Z,18.76
2017-04-03T02:51:15.561Z,18.69
2017-04-03T02:51:35.028Z,18.73
2017-04-03T02:51:55.035Z,18.69
2017-04-03T02:52:14.481Z,18.73
2017-04-03T02:52:34.506Z,18.76
2017-04-03T02:52:54.504Z,18.71
2017-04-03T02:53:14.552Z,18.71
2017-04-03T02:53:34.040Z,18.59
2017-04-03T02:53:54.049Z,18.76
2017-04-03T02:54:14.091Z,18.67
2017-04-03T02:54:33.555Z,18.68
2017-04-03T02:54:53.588Z,18.64
2017-04-03T02:55:13.601Z,18.61
2017-04-03T02:55:33.629Z,18.57
2017-04-03T02:55:53.633Z,18.64
2017-04-03T02:56:13.640Z,18.65
2017-04-03T02:56:33.650Z,18.64
2017-04-03T02:56:53.103Z,18.64
2017-04-03T02:57:13.119Z,18.67
2017-04-03T02:57:32.545Z,18.71
2017-04-03T02:57:52.581Z,18.65
2017-04-03T02:58:12.077Z,18.64
2017-04-03T02:58:32.135Z,18.64
2017-04-03T02:58:52.159Z,18.64
2017-04-03T02:59:11.623Z,18.62
2017-04-03T02:59:31.632Z,18.65
2017-04-03T02:59:50.575Z,18.64
2017-04-03T03:00:09.459Z,18.65
2017-04-03T03:00:29.474Z,18.69
2017-04-03T03:00:49.514Z,18.64
2017-04-03T03:01:09.554Z,18.74
2017-04-03T03:01:29.592Z,18.74
2017-04-03T03:01:49.783Z,18.73
2017-04-03T03:02:09.236Z,18.71
2017-04-03T03:02:28.693Z,18.74
2017-04-03T03:02:48.693Z,18.69
2017-04-03T03:03:08.721Z,18.77
2017-04-03T03:03:28.724Z,18.77
2017-04-03T03:03:48.803Z,18.74
2017-04-03T03:04:08.251Z,18.73
2017-04-03T03:04:28.253Z,18.71
2017-04-03T03:04:48.294Z,18.69
2017-04-03T03:05:07.763Z,18.76
2017-04-03T03:05:27.217Z,18.77
2017-04-03T03:05:47.244Z,18.83
2017-04-03T03:06:07.280Z,18.79
2017-04-03T03:06:27.355Z,18.74
2017-04-03T03:06:47.426Z,18.8
2017-04-03T03:07:07.445Z,18.79
2017-04-03T03:07:27.468Z,18.79
2017-04-03T03:07:47.491Z,18.84
2017-04-03T03:08:07.512Z,18.87
2017-04-03T03:08:26.970Z,18.84
2017-04-03T03:08:46.404Z,18.76
2017-04-03T03:09:06.453Z,18.79
2017-04-03T03:09:25.343Z,18.79
2017-04-03T03:09:45.340Z,18.79
2017-04-03T03:10:05.337Z,18.82
2017-04-03T03:10:24.211Z,18.76
2017-04-03T03:10:43.673Z,18.73
2017-04-03T03:11:03.743Z,18.77
2017-04-03T03:11:23.207Z,18.83
2017-04-03T03:11:42.664Z,18.82
2017-04-03T03:12:02.689Z,18.73
2017-04-03T03:12:22.140Z,18.79
2017-04-03T03:12:41.626Z,18.77
2017-04-03T03:13:01.652Z,18.86
2017-04-03T03:13:21.108Z,18.77
2017-04-03T03:13:41.116Z,18.82
2017-04-03T03:14:00.574Z,18.84
2017-04-03T03:14:20.005Z,18.86
2017-04-03T03:14:40.017Z,18.86
2017-04-03T03:15:00.044Z,18.83
2017-04-03T03:15:20.059Z,18.8
2017-04-03T03:15:40.098Z,18.82
2017-04-03T03:16:00.355Z,18.83
2017-04-03T03:16:20.377Z,18.77
2017-04-03T03:16:40.398Z,18.82
2017-04-03T03:16:59.868Z,18.83
2017-04-03T03:17:19.879Z,18.79
2017-04-03T03:17:39.902Z,18.8
2017-04-03T03:17:59.921Z,18.86
2017-04-03T03:18:19.917Z,18.86
2017-04-03T03:18:39.911Z,18.79
2017-04-03T03:18:59.928Z,18.86
2017-04-03T03:19:19.979Z,18.84
2017-04-03T03:19:40.001Z,18.84
2017-04-03T03:20:00.041Z,18.82
2017-04-03T03:20:19.509Z,18.84
2017-04-03T03:20:38.449Z,18.77
2017-04-03T03:20:58.473Z,18.8
2017-04-03T03:21:18.515Z,18.84
2017-04-03T03:21:37.966Z,18.82
2017-04-03T03:21:57.991Z,18.84
2017-04-03T03:22:18.031Z,18.84
2017-04-03T03:22:36.938Z,18.77
2017-04-03T03:22:56.974Z,18.84
2017-04-03T03:23:16.407Z,18.79
2017-04-03T03:23:36.415Z,18.8
2017-04-03T03:23:55.849Z,18.74
2017-04-03T03:24:15.310Z,18.73
2017-04-03T03:24:34.765Z,18.62
2017-04-03T03:25:13.700Z,18.67
2017-04-03T03:25:33.071Z,18.69
2017-04-03T03:25:52.119Z,18.73
2017-04-03T03:26:11.452Z,18.71
2017-04-03T03:26:30.278Z,18.77
2017-04-03T03:26:49.642Z,18.76
2017-04-03T03:27:08.964Z,18.62
2017-04-03T03:27:28.296Z,18.62
2017-04-03T03:27:47.669Z,18.65
2017-04-03T03:28:07.014Z,18.67
2017-04-03T03:28:26.366Z,18.67
2017-04-03T03:28:45.719Z,18.69
2017-04-03T03:29:05.058Z,18.71
2017-04-03T03:29:24.414Z,18.57
2017-04-03T03:29:43.302Z,18.57
2017-04-03T03:30:02.643Z,18.59
2017-04-03T03:30:22.007Z,18.53
2017-04-03T03:30:39.806Z,18.59
2017-04-03T03:30:59.319Z,18.58
2017-04-03T03:31:18.636Z,18.65
2017-04-03T03:31:37.967Z,18.67
2017-04-03T03:31:57.357Z,18.61
2017-04-03T03:32:16.683Z,18.62
2017-04-03T03:32:36.040Z,18.59
2017-04-03T03:32:55.356Z,18.58
2017-04-03T03:33:14.958Z,18.62
2017-04-03T03:33:34.428Z,18.62
2017-04-03T03:33:53.755Z,18.62
2017-04-03T03:34:13.097Z,18.69
2017-04-03T03:34:31.915Z,18.71
2017-04-03T03:34:51.257Z,18.61
2017-04-03T03:35:10.558Z,18.65
2017-04-03T03:35:29.362Z,18.55
2017-04-03T03:35:48.144Z,18.55
2017-04-03T03:36:07.453Z,18.53
2017-04-03T03:36:26.307Z,18.52
2017-04-03T03:36:45.635Z,18.53
2017-04-03T03:37:04.963Z,18.52
2017-04-03T03:37:24.283Z,18.5
2017-04-03T03:37:43.631Z,18.5
2017-04-03T03:38:02.933Z,18.49
2017-04-03T03:38:21.767Z,18.52
2017-04-03T03:38:41.061Z,18.5
2017-04-03T03:39:00.373Z,18.43
2017-04-03T03:39:19.677Z,18.46
2017-04-03T03:39:38.990Z,18.53
2017-04-03T03:39:58.348Z,18.43
2017-04-03T03:40:17.665Z,18.47
2017-04-03T03:40:36.481Z,18.5
2017-04-03T03:40:55.799Z,18.5
2017-04-03T03:41:15.153Z,18.47
2017-04-03T03:41:34.479Z,18.47
2017-04-03T03:41:53.815Z,18.47
2017-04-03T03:42:13.161Z,18.47
2017-04-03T03:42:31.991Z,18.4
2017-04-03T03:42:51.327Z,18.52
2017-04-03T03:43:10.671Z,18.46
2017-04-03T03:43:29.488Z,18.52
2017-04-03T03:43:48.813Z,18.42
2017-04-03T03:44:07.627Z,18.49
2017-04-03T03:44:26.417Z,18.5
2017-04-03T03:44:45.728Z,18.44
2017-04-03T03:45:05.067Z,18.52
2017-04-03T03:45:23.938Z,18.37
2017-04-03T03:45:43.293Z,18.5
2017-04-03T03:46:02.631Z,18.44
2017-04-03T03:46:21.974Z,18.49
2017-04-03T03:46:41.314Z,18.52
2017-04-03T03:47:00.652Z,18.46
2017-04-03T03:47:19.473Z,18.47
2017-04-03T03:47:38.812Z,18.49
2017-04-03T03:47:57.676Z,18.52
2017-04-03T03:48:16.506Z,18.43
2017-04-03T03:48:34.782Z,18.47
2017-04-03T03:48:53.575Z,18.4
2017-04-03T03:49:12.892Z,18.42
2017-04-03T03:49:31.686Z,18.44
2017-04-03T03:49:50.470Z,18.46
2017-04-03T03:50:09.277Z,18.5
2017-04-03T03:50:28.052Z,18.39
2017-04-03T03:50:47.401Z,18.4
2017-04-03T03:51:06.210Z,18.4
2017-04-03T03:51:25.001Z,18.29
2017-04-03T03:51:44.356Z,18.34
2017-04-03T03:52:03.186Z,18.34
2017-04-03T03:52:22.574Z,18.46
2017-04-03T03:52:41.927Z,18.43
2017-04-03T03:53:01.259Z,18.44
2017-04-03T03:53:20.605Z,18.4
2017-04-03T03:53:39.928Z,18.34
2017-04-03T03:53:59.273Z,18.39
2017-04-03T03:54:18.586Z,18.32
2017-04-03T03:54:37.963Z,18.44
2017-04-03T03:54:57.280Z,18.34
2017-04-03T03:55:16.079Z,18.32
2017-04-03T03:55:34.899Z,18.34
2017-04-03T03:55:54.587Z,18.25
2017-04-03T03:56:13.376Z,18.19
2017-04-03T03:56:32.676Z,18.27
2017-04-03T03:56:52.030Z,18.25
2017-04-03T03:57:11.383Z,18.24
2017-04-03T03:57:30.696Z,18.29
2017-04-03T03:57:50.020Z,18.27
2017-04-03T03:58:09.346Z,18.19
2017-04-03T03:58:28.647Z,18.21
2017-04-03T03:58:47.507Z,18.24
2017-04-03T03:59:06.833Z,18.21
2017-04-03T03:59:25.652Z,18.19
2017-04-03T03:59:45.014Z,18.24
2017-04-03T04:00:03.816Z,18.18
2017-04-03T04:00:23.152Z,18.11
2017-04-03T04:00:44.824Z,18.14
2017-04-03T04:01:04.145Z,18.14
2017-04-03T04:01:23.471Z,18.1
2017-04-03T04:01:42.816Z,18.21
2017-04-03T04:02:01.629Z,18.13
2017-04-03T04:02:20.964Z,18.18
2017-04-03T04:02:40.291Z,18.16
2017-04-03T04:02:59.626Z,18.21
2017-04-03T04:03:18.433Z,18.14
2017-04-03T04:03:37.754Z,18.16
2017-04-03T04:03:57.107Z,18.18
2017-04-03T04:04:15.905Z,18.22
2017-04-03T04:04:34.703Z,18.21
2017-04-03T04:04:54.069Z,18.18
2017-04-03T04:05:13.406Z,18.22
2017-04-03T04:05:32.234Z,18.19
2017-04-03T04:05:51.603Z,18.21
2017-04-03T04:06:10.917Z,18.24
2017-04-03T04:06:30.262Z,18.24
2017-04-03T04:06:49.589Z,18.19
2017-04-03T04:07:08.949Z,18.24
2017-04-03T04:07:28.247Z,18.22
2017-04-03T04:07:47.081Z,18.28
2017-04-03T04:08:05.901Z,18.22
2017-04-03T04:08:25.257Z,18.14
2017-04-03T04:08:44.071Z,18.16
2017-04-03T04:09:03.412Z,18.18
2017-04-03T04:09:22.737Z,18.07
2017-04-03T04:09:41.569Z,18.04
2017-04-03T04:10:00.922Z,18.06
2017-04-03T04:10:20.249Z,18.06
2017-04-03T04:10:39.568Z,17.96
2017-04-03T04:10:58.404Z,18.02
2017-04-03T04:11:17.222Z,17.95
2017-04-03T04:11:35.539Z,17.98
2017-04-03T04:11:54.847Z,17.96
2017-04-03T04:12:14.180Z,17.96
2017-04-03T04:12:33.491Z,18
2017-04-03T04:12:52.856Z,18.02
2017-04-03T04:13:12.198Z,17.98
2017-04-03T04:13:31.551Z,17.96
2017-04-03T04:13:50.876Z,18
2017-04-03T04:14:10.229Z,17.92
2017-04-03T04:14:28.520Z,17.96
2017-04-03T04:14:47.832Z,18.1